Time;durP1;ratioP1;P1;durP2;ratioP2;P2;SDS_P1;SDS_P2;PMS_P1;PMS_P2;Temp;Humidity;BMP_temperature;BMP_pressure;BME280_temperature;BME280_humidity;BME280_pressure;Samples;Min_cycle;Max_cycle;Signal;HPM_P1;HPM_P2
2022/02/14 00:01:56;;;;;;;8.93;2.25;;;9.70;99.90;;;10.21;62.32;99241.25;5067209;28;20036;-78
2022/02/14 00:04:22;;;;;;;7.75;2.55;;;9.70;99.90;;;10.22;62.53;99238.03;5064857;28;20025;-78
2022/02/14 00:06:48;;;;;;;6.13;2.45;;;9.60;99.90;;;10.26;62.68;99243.66;5063395;28;20058;-77
2022/02/14 00:09:17;;;;;;;8.50;2.80;;;9.70;99.90;;;10.34;62.10;99225.75;5071000;28;20052;-78
2022/02/14 00:11:43;;;;;;;7.72;2.65;;;9.70;99.90;;;10.28;62.68;99233.69;5065847;28;20056;-78
2022/02/14 00:14:09;;;;;;;6.82;2.63;;;9.70;99.90;;;10.32;62.22;99226.16;5062890;28;20033;-76
2022/02/14 00:16:35;;;;;;;4.50;2.70;;;9.70;99.90;;;10.37;62.62;99227.78;5062083;28;20033;-77
2022/02/14 00:19:01;;;;;;;10.70;3.17;;;9.70;99.90;;;10.34;62.42;99229.34;5060351;28;20055;-81
2022/02/14 00:21:27;;;;;;;6.85;2.83;;;9.80;99.90;;;10.20;62.91;99218.13;5062121;28;20076;-80
2022/02/14 00:23:53;;;;;;;6.47;2.50;;;9.70;99.90;;;10.24;63.43;99232.09;5059640;28;20063;-81
2022/02/14 00:26:22;;;;;;;7.18;2.42;;;9.70;99.90;;;10.18;63.76;99206.53;5045522;28;20029;-77
2022/02/14 00:28:48;;;;;;;10.10;2.88;;;9.70;99.90;;;10.20;63.69;99211.72;5062796;28;20108;-77
2022/02/14 00:31:14;;;;;;;7.13;2.50;;;9.60;99.90;;;10.19;63.83;99190.59;5059404;28;20492;-78
2022/02/14 00:33:49;;;;;;;6.88;2.63;;;9.70;99.90;;;10.25;63.28;99191.81;5062904;28;20033;-79
2022/02/14 00:36:15;;;;;;;5.40;2.65;;;9.70;99.90;;;10.30;63.68;99188.66;5062047;28;20036;-79
2022/02/14 00:38:41;;;;;;;5.50;2.28;;;9.70;99.90;;;10.24;63.60;99179.84;5060664;28;20056;-78
2022/02/14 00:41:08;;;;;;;10.07;2.50;;;9.70;99.90;;;10.26;63.11;99193.41;5062047;28;20033;-75
2022/02/14 00:43:34;;;;;;;14.65;3.15;;;9.70;99.90;;;10.28;63.27;99174.28;5060696;28;20059;-76
2022/02/14 00:46:00;;;;;;;4.50;2.17;;;9.70;99.90;;;10.28;63.17;99182.66;5062232;28;20393;-77
2022/02/14 00:48:29;;;;;;;7.03;2.53;;;9.70;99.90;;;10.26;63.34;99176.69;5063545;28;20025;-78
2022/02/14 00:50:55;;;;;;;4.80;2.63;;;9.70;99.90;;;10.24;63.54;99162.34;5081883;28;20032;-77
2022/02/14 00:53:21;;;;;;;6.78;2.15;;;9.70;99.90;;;10.24;63.80;99174.28;5080931;28;20063;-76
2022/02/14 00:55:48;;;;;;;7.57;2.95;;;9.60;99.90;;;10.25;63.88;99184.25;5079066;28;20029;-80
2022/02/14 00:58:14;;;;;;;8.48;2.65;;;9.60;99.90;;;10.10;64.44;99168.59;5085463;28;20097;-79
2022/02/14 01:00:43;;;;;;;8.30;2.78;;;9.60;99.90;;;10.19;64.09;99157.91;5084658;28;20060;-79
2022/02/14 01:03:12;;;;;;;15.35;2.83;;;9.60;99.90;;;10.17;64.53;99163.09;5085229;28;20025;-80
2022/02/14 01:05:41;;;;;;;9.45;2.83;;;9.60;99.90;;;10.12;64.94;99149.47;5083351;28;20054;-77
2022/02/14 01:08:07;;;;;;;9.35;2.45;;;9.60;99.90;;;10.25;64.41;99161.94;5081475;28;20036;-76
2022/02/14 01:10:34;;;;;;;8.50;2.83;;;9.60;99.90;;;10.18;64.61;99153.50;5081578;28;20239;-79
2022/02/14 01:12:59;;;;;;;8.40;2.40;;;9.60;99.90;;;10.14;64.82;99149.13;5080276;28;20082;-75
2022/02/14 01:15:26;;;;;;;8.05;2.72;;;9.50;99.90;;;10.05;65.12;99157.81;5066599;28;20040;-77
2022/02/14 01:17:52;;;;;;;5.20;1.95;;;9.50;99.90;;;10.06;64.93;99142.66;5065631;28;20025;-81
2022/02/14 01:20:18;;;;;;;7.50;2.40;;;9.60;99.90;;;10.20;64.33;99147.56;5083378;28;20032;-79
2022/02/14 01:22:44;;;;;;;9.40;3.05;;;9.60;99.90;;;10.22;64.36;99148.75;5084219;28;20056;-77
2022/02/14 01:25:11;;;;;;;7.82;2.75;;;9.60;99.90;;;10.19;64.30;99140.38;5081986;28;20044;-79
2022/02/14 01:27:38;;;;;;;4.60;2.38;;;9.50;99.90;;;10.07;64.68;99136.72;5085211;28;20036;-78
2022/02/14 01:30:10;;;;;;;9.77;2.65;;;9.50;99.90;;;10.03;65.00;99140.66;5086326;28;20116;-77
2022/02/14 01:32:36;;;;;;;7.47;2.53;;;9.40;99.90;;;10.03;65.61;99133.09;5084692;28;20085;-77
2022/02/14 01:35:07;;;;;;;6.32;2.03;;;9.40;99.90;;;10.05;65.53;99127.91;5085260;28;20024;-81
2022/02/14 01:37:39;;;;;;;7.57;2.47;;;9.40;99.90;;;10.01;65.36;99120.75;5081702;28;20084;-79
2022/02/14 01:40:09;;;;;;;5.63;2.50;;;9.30;99.90;;;9.93;65.86;99131.06;5082365;28;20534;-81
2022/02/14 01:42:40;;;;;;;7.18;2.80;;;9.30;99.90;;;9.90;65.62;99123.47;5081960;28;20044;-81
2022/02/14 01:45:10;;;;;;;5.78;2.63;;;9.20;99.90;;;9.72;66.51;99116.19;5085197;28;20038;-82
2022/02/14 01:47:41;;;;;;;6.07;2.92;;;9.10;99.90;;;9.69;66.32;99117.78;5068162;28;20043;-79
2022/02/14 01:50:11;;;;;;;6.60;2.22;;;9.00;99.90;;;9.66;66.60;99096.25;5068911;28;20036;-81
2022/02/14 01:52:38;;;;;;;7.82;2.67;;;9.10;99.90;;;9.70;66.60;99093.47;5060513;28;20192;-80
2022/02/14 01:55:07;;;;;;;9.70;2.97;;;9.10;99.90;;;9.71;66.54;99104.25;5061685;28;20033;-81
2022/02/14 01:57:36;;;;;;;9.63;2.38;;;9.10;99.90;;;9.75;66.08;99090.31;5061839;28;20048;-80
2022/02/14 02:00:23;;;;;;;6.57;2.60;;;9.10;99.90;;;9.69;66.43;99101.06;5063256;28;20018;-80
2022/02/14 02:02:51;;;;;;;5.93;2.15;;;9.00;99.90;;;9.72;66.50;99086.34;5063309;28;20047;-80
2022/02/14 02:05:17;;;;;;;7.32;2.97;;;9.10;99.90;;;9.73;66.33;99084.34;5061260;28;20085;-81
2022/02/14 02:07:44;;;;;;;7.07;2.60;;;9.10;99.90;;;9.66;66.43;99081.53;5061405;28;20029;-78
2022/02/14 02:10:13;;;;;;;8.15;2.90;;;9.10;99.90;;;9.64;66.38;99064.38;5044510;28;20033;-81
2022/02/14 02:12:54;;;;;;;7.90;2.40;;;9.10;99.90;;;9.60;66.47;99058.00;5065896;28;20516;-79
2022/02/14 02:15:22;;;;;;;4.68;2.67;;;9.00;99.90;;;9.56;66.59;99041.25;5068784;28;20084;-80
2022/02/14 02:17:49;;;;;;;4.72;2.55;;;9.00;99.90;;;9.53;66.42;99053.97;5066698;28;20055;-78
2022/02/14 02:20:19;;;;;;;10.63;2.65;;;9.00;99.90;;;9.45;67.16;99040.38;5067854;28;20025;-78
2022/02/14 02:22:50;;;;;;;5.13;2.30;;;8.90;99.90;;;9.51;66.88;99041.59;5067436;28;20032;-78
2022/02/14 02:25:18;;;;;;;5.10;2.63;;;8.90;99.90;;;9.33;67.34;99032.34;5069161;28;20059;-79
2022/02/14 02:27:45;;;;;;;5.53;2.38;;;8.80;99.90;;;9.21;68.28;99025.13;5071472;28;20063;-78
2022/02/14 02:30:26;;;;;;;8.80;2.75;;;8.70;99.90;;;9.29;68.16;99028.75;5070787;28;20029;-80
2022/02/14 02:32:52;;;;;;;5.07;2.40;;;8.70;99.90;;;9.31;67.77;99013.22;5071043;28;20040;-79
2022/02/14 02:35:21;;;;;;;8.13;2.70;;;8.60;99.90;;;9.19;68.87;99016.34;5071342;28;20032;-77
2022/02/14 02:37:47;;;;;;;7.25;2.92;;;8.60;99.90;;;9.16;68.69;99007.97;5070054;28;20040;-78
2022/02/14 02:40:20;;;;;;;5.50;2.22;;;8.60;99.90;;;9.18;68.96;99009.19;5069956;28;20033;-79
2022/02/14 02:42:46;;;;;;;8.57;2.92;;;8.50;99.90;;;9.23;68.90;99003.25;5069391;28;20029;-78
2022/02/14 02:45:12;;;;;;;9.20;2.80;;;8.70;99.90;;;9.36;68.34;98996.16;5066420;28;20033;-81
2022/02/14 02:47:41;;;;;;;6.70;2.47;;;8.80;99.90;;;9.41;67.93;99000.53;5069094;28;20025;-80
2022/02/14 02:50:07;;;;;;;8.35;2.65;;;8.80;99.90;;;9.31;68.63;98984.59;5066613;28;20492;-81
2022/02/14 02:52:33;;;;;;;5.57;2.40;;;8.80;99.90;;;9.26;68.34;98985.75;5091432;28;20036;-79
2022/02/14 02:55:03;;;;;;;6.93;2.35;;;8.70;99.90;;;9.35;68.42;98979.81;5087562;28;20096;-80
2022/02/14 02:57:30;;;;;;;6.60;2.28;;;8.80;99.90;;;9.37;68.08;98986.63;5089346;28;20047;-79
2022/02/14 03:00:04;;;;;;;6.22;2.40;;;8.80;99.90;;;9.35;68.19;98986.19;5089655;28;20104;-81
2022/02/14 03:02:36;;;;;;;9.18;3.05;;;8.80;99.90;;;9.29;68.41;98981.38;5072955;28;20025;-78
2022/02/14 03:05:05;;;;;;;5.82;2.03;;;8.70;99.90;;;9.24;68.53;98982.56;5087531;28;20032;-77
2022/02/14 03:07:34;;;;;;;7.85;3.30;;;8.70;99.90;;;9.26;68.96;98984.94;5089605;28;20028;-78
2022/02/14 03:10:00;;;;;;;9.25;2.50;;;8.60;99.90;;;9.14;68.88;98969.38;5089093;28;20055;-79
2022/02/14 03:12:33;;;;;;;6.55;2.42;;;8.60;99.90;;;9.16;69.22;98957.81;5087305;28;20037;-80
2022/02/14 03:14:59;;;;;;;6.40;2.55;;;8.60;99.90;;;9.22;69.00;98950.69;5085727;28;20033;-80
2022/02/14 03:17:25;;;;;;;6.43;2.67;;;8.70;99.90;;;9.23;69.12;98957.88;5087445;28;20050;-77
2022/02/14 03:19:51;;;;;;;8.32;2.30;;;8.60;99.90;;;9.20;69.46;98939.97;5071711;28;20031;-78
2022/02/14 03:22:17;;;;;;;6.10;2.15;;;8.60;99.90;;;9.31;68.81;98948.38;5085354;28;20511;-80
2022/02/14 03:24:42;;;;;;;8.57;2.20;;;8.70;99.90;;;9.41;68.91;98947.59;5087520;28;20047;-79
2022/02/14 03:27:09;;;;;;;7.30;2.10;;;8.70;99.90;;;9.55;68.35;98933.75;5087328;28;20047;-80
2022/02/14 03:29:35;;;;;;;4.95;2.08;;;8.90;99.90;;;9.62;67.83;98932.97;5087862;28;20090;-77
2022/02/14 03:32:01;;;;;;;6.03;2.20;;;8.90;99.90;;;9.61;68.09;98925.78;5085241;28;20450;-78
2022/02/14 03:34:27;;;;;;;7.10;2.00;;;9.00;99.90;;;9.68;67.47;98907.13;5088119;28;20044;-75
2022/02/14 03:36:53;;;;;;;8.82;2.53;;;9.10;99.90;;;9.56;68.16;98895.53;5090582;28;20070;-81
2022/02/14 03:39:20;;;;;;;9.23;2.50;;;9.10;99.90;;;9.58;67.82;98912.66;5085763;28;20127;-78
2022/02/14 03:41:45;;;;;;;7.80;2.00;;;9.10;99.90;;;9.70;67.05;98888.00;5071773;28;20032;-78
2022/02/14 03:44:12;;;;;;;7.78;2.40;;;9.10;99.90;;;9.64;67.11;98897.13;5087875;28;20033;-79
2022/02/14 03:46:41;;;;;;;11.20;2.72;;;9.10;99.90;;;9.66;66.95;98903.94;5083769;28;20021;-79
2022/02/14 03:49:07;;;;;;;7.22;2.00;;;9.10;99.90;;;9.74;67.44;98899.16;5077487;28;20029;-77
2022/02/14 03:51:33;;;;;;;4.13;1.75;;;9.10;99.90;;;9.65;67.23;98891.19;5063105;28;20039;-80
2022/02/14 03:53:59;;;;;;;5.93;2.05;;;9.00;99.90;;;9.55;67.60;98886.38;5045705;28;20108;-80
2022/02/14 03:56:31;;;;;;;5.38;2.33;;;9.10;99.90;;;9.51;67.96;98891.94;5062827;28;20032;-80
2022/02/14 03:58:57;;;;;;;10.85;2.60;;;8.90;99.90;;;9.42;68.04;98904.63;5045874;28;20135;-78
2022/02/14 04:01:26;;;;;;;4.82;2.35;;;8.90;99.90;;;9.45;68.48;98903.84;5061154;28;20032;-78
2022/02/14 04:03:52;;;;;;;6.88;2.15;;;8.90;99.90;;;9.49;67.98;98916.63;5061694;28;20120;-81
2022/02/14 04:06:21;;;;;;;6.63;2.38;;;8.80;99.90;;;9.43;68.04;98898.69;5063213;28;20082;-80
2022/02/14 04:08:50;;;;;;;4.47;1.75;;;8.90;99.90;;;9.47;68.01;98898.69;5061621;28;20039;-82
2022/02/14 04:11:16;;;;;;;4.95;1.90;;;8.90;99.90;;;9.36;68.41;98875.56;5065180;28;20021;-77
2022/02/14 04:13:42;;;;;;;9.35;2.30;;;8.90;99.90;;;9.43;67.77;98861.66;5063570;28;20139;-82
2022/02/14 04:16:10;;;;;;;6.38;2.22;;;8.80;99.90;;;9.40;68.16;98884.72;5062119;28;20057;-78
2022/02/14 04:18:39;;;;;;;5.93;2.10;;;8.80;99.90;;;9.40;68.08;98879.16;5069773;28;20025;-79
2022/02/14 04:21:05;;;;;;;7.55;2.35;;;8.70;99.90;;;9.31;68.50;98901.78;5083765;22;20025;-72
2022/02/14 04:23:34;;;;;;;7.03;2.63;;;8.70;99.90;;;9.30;68.85;98889.06;5051478;28;20529;-74
2022/02/14 04:26:00;;;;;;;3.85;2.00;;;8.70;99.90;;;9.26;68.85;98902.19;5052681;28;20040;-75
2022/02/14 04:28:25;;;;;;;5.60;1.98;;;8.70;99.90;;;9.29;68.89;98897.81;5052473;28;20103;-75
2022/02/14 04:30:54;;;;;;;6.38;1.70;;;8.70;99.90;;;9.38;68.47;98914.97;5034626;28;20029;-73
2022/02/14 04:33:20;;;;;;;8.95;2.63;;;8.60;99.90;;;9.19;69.20;98909.69;5060433;28;20041;-74
2022/02/14 04:35:46;;;;;;;3.05;1.83;;;8.60;99.90;;;9.28;69.21;98904.59;5066107;28;20059;-73
2022/02/14 04:38:12;;;;;;;4.68;2.00;;;8.60;99.90;;;9.21;69.54;98896.19;5063824;28;20037;-74
2022/02/14 04:40:41;;;;;;;6.05;2.25;;;8.60;99.90;;;9.18;69.39;98908.13;5040798;28;20088;-75
2022/02/14 04:43:08;;;;;;;6.38;2.13;;;8.60;99.90;;;9.15;69.82;98904.09;5052422;28;20024;-75
2022/02/14 04:45:35;;;;;;;7.40;1.85;;;8.60;99.90;;;9.12;69.94;98909.69;5052121;28;20090;-74
2022/02/14 04:48:02;;;;;;;10.20;2.50;;;8.50;99.90;;;9.08;69.73;98897.72;5034118;28;20082;-73
2022/02/14 04:50:29;;;;;;;2.92;1.63;;;8.50;99.90;;;9.02;70.43;98897.31;5067810;28;20025;-73
2022/02/14 04:52:55;;;;;;;3.90;2.03;;;8.40;99.90;;;9.07;70.48;98893.34;5072056;28;20039;-75
2022/02/14 04:55:21;;;;;;;3.55;1.92;;;8.30;99.90;;;8.91;70.76;98896.44;5072461;28;20108;-73
2022/02/14 04:57:47;;;;;;;5.85;2.17;;;8.40;99.90;;;8.90;71.05;98898.41;5070748;28;20415;-73
2022/02/14 05:00:16;;;;;;;4.10;1.80;;;8.30;99.90;;;8.84;71.63;98905.53;5070535;28;20037;-75
2022/02/14 05:02:44;;;;;;;4.72;1.77;;;8.20;99.90;;;8.79;72.04;98903.16;5071831;28;20032;-71
2022/02/14 05:05:13;;;;;;;3.80;2.10;;;8.30;99.90;;;8.84;71.95;98888.84;5071872;28;20029;-74
2022/02/14 05:07:39;;;;;;;4.82;2.10;;;8.20;99.90;;;8.83;72.16;98887.25;5053677;28;20046;-73
2022/02/14 05:10:26;;;;;;;4.88;2.22;;;8.20;99.90;;;8.86;72.14;98894.03;5070276;28;20107;-73
2022/02/14 05:12:54;;;;;;;5.93;2.13;;;8.20;99.90;;;8.95;72.17;98883.34;5071675;28;20025;-73
2022/02/14 05:15:20;;;;;;;3.42;2.03;;;8.30;99.90;;;9.04;71.99;98883.78;5071781;28;20111;-74
2022/02/14 05:17:49;;;;;;;7.80;2.20;;;8.40;99.90;;;9.08;72.04;98890.19;5071248;28;20155;-73
2022/02/14 05:20:15;;;;;;;6.82;1.63;;;8.50;99.90;;;9.23;71.73;98891.03;5053463;28;20024;-73
2022/02/14 05:22:46;;;;;;;4.78;1.95;;;8.60;99.90;;;9.35;71.93;98888.69;5071389;28;20115;-75
2022/02/14 05:25:15;;;;;;;2.83;1.63;;;8.60;99.90;;;9.50;71.41;98883.97;5071642;28;20032;-73
2022/02/14 05:27:41;;;;;;;6.20;1.98;;;8.80;99.90;;;9.72;70.79;98890.41;5071615;28;20059;-74
2022/02/14 05:30:08;;;;;;;5.13;2.05;;;9.10;99.90;;;9.91;70.12;98885.25;5071578;28;20060;-73
2022/02/14 05:32:37;;;;;;;4.15;1.70;;;9.30;99.90;;;10.02;70.04;98885.25;5071330;28;20032;-73
2022/02/14 05:35:04;;;;;;;3.00;1.73;;;9.30;99.90;;;10.14;69.42;98886.91;5071430;28;20143;-74
2022/02/14 05:37:30;;;;;;;7.20;1.67;;;9.50;99.90;;;10.17;69.48;98881.34;5070046;28;20028;-73
2022/02/14 05:39:58;;;;;;;5.43;2.15;;;9.60;99.90;;;10.21;69.30;98893.28;5071247;28;20027;-73
2022/02/14 05:42:28;;;;;;;3.70;1.73;;;9.70;99.90;;;10.36;68.64;98896.88;5055902;28;20373;-73
2022/02/14 05:44:53;;;;;;;2.72;1.60;;;9.70;99.90;;;10.35;68.34;98892.47;5055961;28;20062;-75
2022/02/14 05:47:19;;;;;;;6.63;1.88;;;9.70;99.90;;;10.34;68.85;98896.50;5070973;28;20217;-73
2022/02/14 05:49:48;;;;;;;3.03;1.60;;;9.70;99.90;;;10.28;68.54;98889.69;5043356;28;20033;-74
2022/02/14 05:52:20;;;;;;;4.57;2.15;;;9.70;99.90;;;10.30;68.84;98896.50;5051248;28;20064;-73
2022/02/14 05:54:48;;;;;;;4.50;1.75;;;9.70;99.90;;;10.25;69.01;98891.28;5051415;28;20025;-74
2022/02/14 05:57:14;;;;;;;5.97;2.05;;;9.60;99.90;;;10.14;69.47;98882.13;5051495;28;20043;-74
2022/02/14 05:59:46;;;;;;;7.18;1.90;;;9.60;99.90;;;10.26;69.31;98887.31;5051557;28;20136;-72
2022/02/14 06:02:13;;;;;;;4.85;1.85;;;9.60;99.90;;;10.24;68.96;98883.31;5051295;28;20526;-73
2022/02/14 06:04:39;;;;;;;7.22;1.73;;;9.60;99.90;;;10.25;69.20;98885.72;5033710;28;20039;-74
2022/02/14 06:07:05;;;;;;;10.30;2.10;;;9.70;99.90;;;10.32;69.25;98885.72;5051276;28;20032;-73
2022/02/14 06:09:31;;;;;;;6.72;1.90;;;9.70;99.90;;;10.36;69.16;98896.88;5051172;28;20037;-75
2022/02/14 06:12:00;;;;;;;5.80;1.58;;;9.70;99.90;;;10.30;69.65;98876.94;5034209;28;20460;-75
2022/02/14 06:14:27;;;;;;;5.80;1.27;;;9.70;99.90;;;10.31;69.47;98886.91;5051165;28;20489;-72
2022/02/14 06:16:53;;;;;;;3.67;1.60;;;9.70;99.90;;;10.33;69.41;98892.91;5033285;28;20485;-73
2022/02/14 06:19:21;;;;;;;3.92;1.70;;;9.70;99.90;;;10.33;69.40;98890.09;5051077;28;20067;-74
2022/02/14 06:21:50;;;;;;;6.57;1.40;;;9.70;99.90;;;10.32;69.81;98888.50;5051127;28;20108;-73
2022/02/14 06:24:22;;;;;;;4.13;2.30;;;9.70;99.90;;;10.39;70.10;98894.09;5050995;28;20029;-74
2022/02/14 06:26:49;;;;;;;4.15;1.50;;;9.70;99.90;;;10.41;70.11;98894.47;5051096;28;20124;-72
2022/02/14 06:29:14;;;;;;;5.22;1.52;;;9.70;99.90;;;10.39;69.97;98908.03;5050926;28;20021;-73
2022/02/14 06:31:40;;;;;;;3.65;1.50;;;9.70;99.90;;;10.38;70.47;98903.66;5049814;28;20443;-73
2022/02/14 06:34:06;;;;;;;5.90;1.50;;;9.70;99.90;;;10.39;70.43;98902.47;5052297;28;20033;-74
2022/02/14 06:36:35;;;;;;;4.35;1.75;;;9.70;99.90;;;10.25;70.54;98915.59;5053998;28;20032;-73
2022/02/14 06:39:02;;;;;;;5.38;2.03;;;9.60;99.90;;;10.21;70.83;98907.22;5051005;28;20053;-73
2022/02/14 06:41:28;;;;;;;3.92;1.63;;;9.60;99.90;;;10.23;70.59;98910.44;5033174;28;20368;-74
2022/02/14 06:43:56;;;;;;;3.75;1.90;;;9.60;99.90;;;10.17;71.09;98930.75;5050880;28;20476;-73
2022/02/14 06:46:24;;;;;;;6.35;1.63;;;9.50;99.90;;;10.12;71.87;98906.78;5050887;28;20381;-72
2022/02/14 06:48:53;;;;;;;3.00;1.58;;;9.50;99.90;;;10.07;72.13;98913.56;5053035;28;20033;-74
2022/02/14 06:51:19;;;;;;;4.13;1.83;;;9.40;99.90;;;10.03;72.63;98920.31;5070934;28;20078;-73
2022/02/14 06:53:46;;;;;;;5.10;1.70;;;9.40;99.90;;;10.02;73.05;98936.25;5071142;28;20112;-74
2022/02/14 06:56:12;;;;;;;5.22;1.67;;;9.40;99.90;;;10.15;72.13;98927.53;5071394;28;20032;-74
2022/02/14 06:58:41;;;;;;;3.28;1.63;;;9.50;99.90;;;10.12;72.28;98911.56;5074804;28;20486;-74
2022/02/14 07:01:08;;;;;;;3.15;1.90;;;9.50;99.90;;;9.95;72.80;98904.78;5074515;28;20021;-74
2022/02/14 07:03:40;;;;;;;5.53;1.70;;;9.40;99.90;;;10.02;73.20;98897.22;5075313;28;20024;-75
2022/02/14 07:06:07;;;;;;;7.70;1.88;;;9.40;99.90;;;9.98;73.08;98901.22;5075162;28;20558;-72
2022/02/14 07:08:34;;;;;;;2.45;1.52;;;9.30;99.90;;;9.85;73.96;98900.78;5075255;28;20036;-75
2022/02/14 07:11:01;;;;;;;3.35;1.75;;;9.30;99.90;;;9.94;73.85;98908.75;5075121;28;20166;-73
2022/02/14 07:13:27;;;;;;;3.03;1.48;;;9.20;99.90;;;9.99;73.57;98913.94;5074750;28;20119;-74
2022/02/14 07:15:54;;;;;;;4.82;1.73;;;9.20;99.90;;;9.95;73.80;98916.72;5074522;28;20028;-75
2022/02/14 07:18:20;;;;;;;3.97;1.33;;;9.20;99.90;;;9.94;74.34;98908.75;5074386;28;20094;-74
2022/02/14 07:20:46;;;;;;;3.40;1.30;;;9.20;99.90;;;9.99;74.01;98914.75;5074111;28;20024;-72
2022/02/14 07:23:13;;;;;;;6.43;1.73;;;9.30;99.90;;;9.99;74.28;98916.72;5073958;28;20090;-72
2022/02/14 07:25:39;;;;;;;3.80;2.05;;;9.30;99.90;;;9.94;74.64;98917.13;5070881;28;20029;-75
2022/02/14 07:28:05;;;;;;;8.57;1.77;;;9.30;99.90;;;10.07;74.54;98912.78;5074421;28;20108;-74
2022/02/14 07:30:31;;;;;;;6.10;1.70;;;9.30;99.90;;;10.06;74.24;98917.53;5074802;28;20024;-75
2022/02/14 07:32:57;;;;;;;6.20;2.13;;;9.40;99.90;;;10.19;74.55;98909.63;5072579;28;20029;-74
2022/02/14 07:35:29;;;;;;;3.80;1.25;;;9.50;99.90;;;10.43;73.25;98899.66;5073798;28;20472;-74
2022/02/14 07:38:01;;;;;;;5.30;2.00;;;9.70;99.90;;;10.70;72.34;98914.78;5073745;28;20048;-72
2022/02/14 07:40:29;;;;;;;5.45;1.92;;;9.90;99.90;;;10.90;71.32;98909.56;5073995;28;20392;-73
2022/02/14 07:42:55;;;;;;;4.53;1.90;;;10.10;99.90;;;10.86;71.28;98911.56;5074311;28;20028;-74
2022/02/14 07:45:23;;;;;;;2.38;1.50;;;10.20;99.90;;;10.68;72.80;98905.22;5074109;28;20055;-72
2022/02/14 07:47:50;;;;;;;3.88;1.33;;;10.10;99.90;;;10.74;72.46;98920.38;5073853;28;20115;-75
2022/02/14 07:50:20;;;;;;;3.25;1.60;;;10.10;99.90;;;10.73;73.15;98924.34;5059403;28;20484;-74
2022/02/14 07:52:46;;;;;;;2.05;1.30;;;10.10;99.90;;;10.75;72.83;98910.81;5035956;28;20033;-73
2022/02/14 07:55:15;;;;;;;3.63;1.33;;;10.10;99.90;;;10.73;73.63;98904.81;5053513;28;20388;-74
2022/02/14 07:57:44;;;;;;;5.35;1.70;;;10.10;99.90;;;10.71;74.05;98902.44;5053876;28;20106;-73
2022/02/14 08:00:12;;;;;;;2.88;1.30;;;10.10;99.90;;;10.92;73.73;98921.13;5053950;28;20512;-73
2022/02/14 08:02:38;;;;;;;2.50;1.30;;;10.20;99.90;;;10.91;73.83;98930.72;5054216;28;20392;-74
2022/02/14 08:05:06;;;;;;;3.83;1.70;;;10.20;99.90;;;11.05;72.83;98909.13;5053906;28;20033;-73
2022/02/14 08:07:33;;;;;;;3.55;1.50;;;10.30;99.90;;;10.99;73.17;98910.75;5035735;28;20025;-73
2022/02/14 08:10:02;;;;;;;5.38;1.48;;;10.30;99.90;;;10.94;73.88;98924.34;5052530;28;20491;-74
2022/02/14 08:12:31;;;;;;;2.30;1.60;;;10.30;99.90;;;11.01;73.65;98916.72;5053791;28;20542;-74
2022/02/14 08:15:02;;;;;;;4.65;1.70;;;10.40;99.90;;;11.04;74.35;98917.94;5053299;28;20101;-73
2022/02/14 08:17:28;;;;;;;4.35;1.52;;;10.40;99.90;;;11.06;74.13;98921.91;5053582;28;20380;-73
2022/02/14 08:19:58;;;;;;;4.80;1.40;;;10.40;99.90;;;11.00;74.40;98928.31;5035206;28;20021;-75
2022/02/14 08:22:28;;;;;;;3.90;1.52;;;10.40;99.90;;;11.24;73.68;98921.06;5034951;28;20530;-74
2022/02/14 08:24:53;;;;;;;4.25;1.40;;;10.50;99.90;;;11.11;74.28;98924.28;5035282;28;20037;-74
2022/02/14 08:27:20;;;;;;;2.28;1.42;;;10.50;99.90;;;11.09;74.78;98923.91;5052606;28;20399;-74
2022/02/14 08:29:49;;;;;;;4.57;1.48;;;10.50;99.90;;;11.18;74.41;98911.47;5052334;28;20380;-75
2022/02/14 08:32:16;;;;;;;6.70;1.30;;;10.60;99.90;;;11.21;74.52;98917.06;5052746;28;20095;-73
2022/02/14 08:34:44;;;;;;;5.20;2.13;;;10.60;99.90;;;11.17;74.86;98909.91;5052388;28;20163;-74
2022/02/14 08:37:12;;;;;;;4.65;1.45;;;10.60;99.90;;;11.25;75.18;98911.47;5034797;28;20032;-72
2022/02/14 08:39:41;;;;;;;4.38;1.80;;;10.60;99.90;;;11.27;74.87;98914.69;5052932;28;20029;-74
2022/02/14 08:42:10;;;;;;;4.25;1.90;;;10.60;99.90;;;11.38;74.34;98923.81;5052584;28;20067;-73
2022/02/14 08:44:39;;;;;;;4.03;1.60;;;10.70;99.90;;;11.32;74.79;98923.44;5052893;28;20129;-73
2022/02/14 08:47:05;;;;;;;4.38;1.63;;;10.70;99.90;;;11.37;74.90;98908.22;5053016;28;20028;-74
2022/02/14 08:49:37;;;;;;;4.32;1.88;;;10.70;99.90;;;11.38;74.48;98915.41;5061017;28;20052;-72
2022/02/14 08:52:04;;;;;;;2.08;1.30;;;10.70;99.90;;;11.45;74.75;98920.97;5073073;28;20028;-74
2022/02/14 08:54:29;;;;;;;8.00;1.73;;;10.70;99.90;;;11.52;74.34;98910.59;5073084;28;20124;-74
2022/02/14 08:56:56;;;;;;;5.10;1.63;;;10.80;99.90;;;11.56;74.91;98916.13;5072902;28;20103;-73
2022/02/14 08:59:25;;;;;;;2.80;1.67;;;10.80;99.90;;;11.53;74.40;98914.94;5054574;28;20392;-74
2022/02/14 09:01:51;;;;;;;3.05;1.55;;;10.90;99.90;;;11.53;74.63;98916.94;5078480;28;20040;-74
2022/02/14 09:04:20;;;;;;;4.25;1.77;;;10.90;99.90;;;11.55;75.57;98922.94;5065623;28;20167;-74
2022/02/14 09:06:46;;;;;;;3.25;1.65;;;11.00;99.90;;;11.70;74.28;98918.06;5085121;28;20115;-73
2022/02/14 09:09:12;;;;;;;6.82;1.40;;;11.00;99.90;;;11.76;74.25;98922.84;5073224;28;20429;-76
2022/02/14 09:11:41;;;;;;;3.65;1.73;;;11.10;99.90;;;11.82;73.78;98931.59;5071754;28;20123;-73
2022/02/14 09:14:08;;;;;;;4.00;1.52;;;11.10;99.90;;;11.83;73.89;98924.81;5071474;28;20043;-73
2022/02/14 09:16:37;;;;;;;5.55;1.70;;;11.10;99.90;;;11.87;73.80;98928.41;5077225;28;20029;-72
2022/02/14 09:19:04;;;;;;;4.70;1.95;;;11.10;99.90;;;11.71;74.13;98930.88;5091794;28;20051;-72
2022/02/14 09:21:30;;;;;;;4.40;1.20;;;11.10;99.90;;;11.78;74.67;98923.28;5063231;28;20029;-72
2022/02/14 09:23:56;;;;;;;3.30;1.20;;;11.10;99.90;;;11.76;75.04;98933.25;5073024;28;20070;-73
2022/02/14 09:26:23;;;;;;;4.25;1.50;;;11.00;99.90;;;11.69;74.80;98931.25;5072542;28;20068;-73
2022/02/14 09:28:49;;;;;;;7.38;1.40;;;11.10;99.90;;;11.64;74.92;98942.88;5072463;28;20035;-75
2022/02/14 09:31:16;;;;;;;4.45;1.65;;;11.00;99.90;;;11.67;75.19;98925.28;5072585;28;20032;-72
2022/02/14 09:33:47;;;;;;;1.80;1.00;;;11.00;99.90;;;11.69;75.15;98938.88;5072635;28;20721;-76
2022/02/14 09:36:14;;;;;;;1.65;1.20;;;11.00;99.90;;;11.76;74.77;98924.84;5071933;28;20036;-72
2022/02/14 09:38:40;;;;;;;5.53;1.63;;;11.10;99.90;;;11.76;75.34;98933.25;5072137;28;20494;-73
2022/02/14 09:41:06;;;;;;;3.83;1.17;;;11.10;99.90;;;11.73;75.35;98934.06;5072320;28;20082;-75
2022/02/14 09:43:35;;;;;;;1.65;1.10;;;11.10;99.90;;;11.81;75.15;98936.44;5072280;28;20021;-75
2022/02/14 09:46:04;;;;;;;2.90;1.77;;;11.10;99.90;;;11.88;75.51;98930.00;5072505;28;20032;-75
2022/02/14 09:48:33;;;;;;;5.40;1.45;;;11.10;99.90;;;11.84;75.24;98930.03;5072554;28;20036;-74
2022/02/14 09:50:59;;;;;;;1.90;1.40;;;11.10;99.90;;;11.77;75.53;98927.25;5031992;28;20509;-74
2022/02/14 09:53:25;;;;;;;3.95;1.42;;;11.20;99.90;;;11.96;74.83;98940.75;5031473;28;20060;-75
2022/02/14 09:55:51;;;;;;;5.28;1.52;;;11.20;99.90;;;11.81;75.50;98936.44;5031645;28;20038;-74
2022/02/14 09:58:17;;;;;;;2.30;1.60;;;11.20;99.90;;;11.84;75.40;98949.59;5031897;28;20030;-73
2022/02/14 10:00:49;;;;;;;2.35;0.90;;;11.20;99.90;;;11.91;74.69;98934.78;5031909;28;20025;-74
2022/02/14 10:03:24;;;;;;;4.75;1.13;;;11.20;99.90;;;11.95;74.93;98950.31;5014076;28;20029;-73
2022/02/14 10:05:57;;;;;;;4.00;1.60;;;11.20;99.90;;;11.94;75.17;98951.56;5013822;28;20030;-74
2022/02/14 10:08:35;;;;;;;2.10;1.10;;;11.20;99.90;;;12.01;75.26;98959.06;5031668;28;20077;-73
2022/02/14 10:11:16;;;;;;;5.53;1.63;;;11.30;99.90;;;12.05;75.18;98959.88;5031261;28;20040;-72
2022/02/14 10:13:50;;;;;;;2.05;1.20;;;11.30;99.90;;;12.19;74.52;98967.38;5032042;28;20129;-76
2022/02/14 10:16:20;;;;;;;4.43;1.35;;;11.40;99.90;;;12.13;74.86;98969.81;5014195;28;20121;-73
2022/02/14 10:18:47;;;;;;;3.38;1.45;;;11.40;99.90;;;12.13;74.85;98969.81;5032017;28;20026;-74
2022/02/14 10:24:16;;;;;;;4.90;1.90;;;11.40;99.90;;;12.23;74.85;98984.97;5034158;23;20501;-77
2022/02/14 10:26:47;;;;;;;3.47;1.60;;;11.40;99.90;;;12.05;77.23;98999.84;5017180;28;20397;-77
2022/02/14 10:29:31;;;;;;;6.85;1.45;;;11.40;99.90;;;11.95;77.30;98991.50;5015897;28;20025;-77
2022/02/14 10:32:17;;;;;;;3.03;1.33;;;11.20;99.90;;;12.05;77.27;98987.84;5018140;28;20036;-77
2022/02/14 10:35:09;;;;;;;5.60;1.45;;;11.20;99.90;;;11.97;77.92;98989.09;5020022;28;20473;-77